sensor_id;sensor_type;location;lat;lon;timestamp;temperature;humidity
22680;DHT22;11507;44.858;10.374;2023-04-19T00:02:00;8.50;99.90
22680;DHT22;11507;44.858;10.374;2023-04-19T00:04:26;8.50;99.90
22680;DHT22;11507;44.858;10.374;2023-04-19T00:06:54;8.50;99.90
22680;DHT22;11507;44.858;10.374;2023-04-19T00:09:19;8.50;99.90
22680;DHT22;11507;44.858;10.374;2023-04-19T00:11:45;8.50;99.90
22680;DHT22;11507;44.858;10.374;2023-04-19T00:14:11;8.40;99.90
22680;DHT22;11507;44.858;10.374;2023-04-19T00:16:38;8.50;99.90
22680;DHT22;11507;44.858;10.374;2023-04-19T00:19:04;8.40;99.90
22680;DHT22;11507;44.858;10.374;2023-04-19T00:21:29;8.50;99.90
22680;DHT22;11507;44.858;10.374;2023-04-19T00:23:55;8.40;99.90
22680;DHT22;11507;44.858;10.374;2023-04-19T00:26:21;8.40;99.90
22680;DHT22;11507;44.858;10.374;2023-04-19T00:28:50;8.40;99.90
22680;DHT22;11507;44.858;10.374;2023-04-19T00:31:16;8.40;99.90
22680;DHT22;11507;44.858;10.374;2023-04-19T00:33:42;8.40;99.90
22680;DHT22;11507;44.858;10.374;2023-04-19T00:36:07;8.50;99.90
22680;DHT22;11507;44.858;10.374;2023-04-19T00:38:35;8.50;99.90
22680;DHT22;11507;44.858;10.374;2023-04-19T00:41:01;8.50;99.90
22680;DHT22;11507;44.858;10.374;2023-04-19T00:43:27;8.40;99.90
22680;DHT22;11507;44.858;10.374;2023-04-19T00:45:52;8.40;99.90
22680;DHT22;11507;44.858;10.374;2023-04-19T00:48:18;8.40;99.90
22680;DHT22;11507;44.858;10.374;2023-04-19T00:50:44;8.40;99.90
22680;DHT22;11507;44.858;10.374;2023-04-19T00:53:10;8.40;99.90
22680;DHT22;11507;44.858;10.374;2023-04-19T00:55:37;8.40;99.90
22680;DHT22;11507;44.858;10.374;2023-04-19T00:58:04;8.30;99.90
22680;DHT22;11507;44.858;10.374;2023-04-19T01:00:30;8.30;99.90
22680;DHT22;11507;44.858;10.374;2023-04-19T01:02:57;8.20;99.90
22680;DHT22;11507;44.858;10.374;2023-04-19T01:05:22;8.20;99.90
22680;DHT22;11507;44.858;10.374;2023-04-19T01:07:48;8.00;99.90
22680;DHT22;11507;44.858;10.374;2023-04-19T01:10:14;7.90;99.90
22680;DHT22;11507;44.858;10.374;2023-04-19T01:12:40;7.80;99.90
22680;DHT22;11507;44.858;10.374;2023-04-19T01:15:06;7.70;99.90
22680;DHT22;11507;44.858;10.374;2023-04-19T01:17:32;7.60;99.90
22680;DHT22;11507;44.858;10.374;2023-04-19T01:20:01;7.50;99.90
22680;DHT22;11507;44.858;10.374;2023-04-19T01:22:29;7.50;99.90
22680;DHT22;11507;44.858;10.374;2023-04-19T01:24:55;7.50;99.90
22680;DHT22;11507;44.858;10.374;2023-04-19T01:27:20;7.40;99.90
22680;DHT22;11507;44.858;10.374;2023-04-19T01:29:49;7.50;99.90
22680;DHT22;11507;44.858;10.374;2023-04-19T01:32:16;7.50;99.90
22680;DHT22;11507;44.858;10.374;2023-04-19T01:34:42;7.50;99.90
22680;DHT22;11507;44.858;10.374;2023-04-19T01:37:07;7.50;99.90
22680;DHT22;11507;44.858;10.374;2023-04-19T01:39:33;7.50;99.90
22680;DHT22;11507;44.858;10.374;2023-04-19T01:41:59;7.50;99.90
22680;DHT22;11507;44.858;10.374;2023-04-19T01:44:25;7.40;99.90
22680;DHT22;11507;44.858;10.374;2023-04-19T01:46:52;7.40;99.90
22680;DHT22;11507;44.858;10.374;2023-04-19T01:49:18;7.40;99.90
22680;DHT22;11507;44.858;10.374;2023-04-19T01:51:44;7.40;99.90
22680;DHT22;11507;44.858;10.374;2023-04-19T01:54:10;7.40;99.90
22680;DHT22;11507;44.858;10.374;2023-04-19T01:56:35;7.20;99.90
22680;DHT22;11507;44.858;10.374;2023-04-19T01:59:01;7.20;99.90
22680;DHT22;11507;44.858;10.374;2023-04-19T02:01:29;7.20;99.90
22680;DHT22;11507;44.858;10.374;2023-04-19T02:03:57;7.10;99.90
22680;DHT22;11507;44.858;10.374;2023-04-19T02:06:26;7.00;99.90
22680;DHT22;11507;44.858;10.374;2023-04-19T02:08:52;6.90;99.90
22680;DHT22;11507;44.858;10.374;2023-04-19T02:11:18;6.80;99.90
22680;DHT22;11507;44.858;10.374;2023-04-19T02:13:43;6.80;99.90
22680;DHT22;11507;44.858;10.374;2023-04-19T02:16:10;6.70;99.90
22680;DHT22;11507;44.858;10.374;2023-04-19T02:18:37;6.70;99.90
22680;DHT22;11507;44.858;10.374;2023-04-19T02:21:06;6.60;99.90
22680;DHT22;11507;44.858;10.374;2023-04-19T02:23:32;6.60;99.90
22680;DHT22;11507;44.858;10.374;2023-04-19T02:25:59;6.50;99.90
22680;DHT22;11507;44.858;10.374;2023-04-19T02:28:30;6.50;99.90
22680;DHT22;11507;44.858;10.374;2023-04-19T02:30:56;6.50;99.90
22680;DHT22;11507;44.858;10.374;2023-04-19T02:33:22;6.50;99.90
22680;DHT22;11507;44.858;10.374;2023-04-19T02:35:49;6.50;99.90
22680;DHT22;11507;44.858;10.374;2023-04-19T02:38:15;6.50;99.90
22680;DHT22;11507;44.858;10.374;2023-04-19T02:40:41;6.60;99.90
22680;DHT22;11507;44.858;10.374;2023-04-19T02:43:07;6.50;99.90
22680;DHT22;11507;44.858;10.374;2023-04-19T02:45:33;6.50;99.90
22680;DHT22;11507;44.858;10.374;2023-04-19T02:47:59;6.50;99.90
22680;DHT22;11507;44.858;10.374;2023-04-19T02:50:25;6.50;99.90
22680;DHT22;11507;44.858;10.374;2023-04-19T02:52:52;6.40;99.90
22680;DHT22;11507;44.858;10.374;2023-04-19T02:55:20;6.40;99.90
22680;DHT22;11507;44.858;10.374;2023-04-19T02:57:49;6.40;99.90
22680;DHT22;11507;44.858;10.374;2023-04-19T03:00:16;6.40;99.90
22680;DHT22;11507;44.858;10.374;2023-04-19T03:02:54;6.40;99.90
22680;DHT22;11507;44.858;10.374;2023-04-19T03:05:21;6.40;99.90
22680;DHT22;11507;44.858;10.374;2023-04-19T03:07:47;6.30;99.90
22680;DHT22;11507;44.858;10.374;2023-04-19T03:10:13;6.30;99.90
22680;DHT22;11507;44.858;10.374;2023-04-19T03:12:39;6.30;99.90
22680;DHT22;11507;44.858;10.374;2023-04-19T03:15:05;6.30;99.90
22680;DHT22;11507;44.858;10.374;2023-04-19T03:17:32;6.30;99.90
22680;DHT22;11507;44.858;10.374;2023-04-19T03:19:58;6.40;99.90
22680;DHT22;11507;44.858;10.374;2023-04-19T03:22:24;6.30;99.90
22680;DHT22;11507;44.858;10.374;2023-04-19T03:24:51;6.30;99.90
22680;DHT22;11507;44.858;10.374;2023-04-19T03:27:21;6.30;99.90
22680;DHT22;11507;44.858;10.374;2023-04-19T03:29:52;6.20;99.90
22680;DHT22;11507;44.858;10.374;2023-04-19T03:32:19;6.30;99.90
22680;DHT22;11507;44.858;10.374;2023-04-19T03:34:44;6.30;99.90
22680;DHT22;11507;44.858;10.374;2023-04-19T03:37:12;6.20;99.90
22680;DHT22;11507;44.858;10.374;2023-04-19T03:39:39;6.20;99.90
22680;DHT22;11507;44.858;10.374;2023-04-19T03:42:09;6.20;99.90
22680;DHT22;11507;44.858;10.374;2023-04-19T03:45:01;6.10;99.90
22680;DHT22;11507;44.858;10.374;2023-04-19T03:47:29;6.10;99.90
22680;DHT22;11507;44.858;10.374;2023-04-19T03:49:57;6.20;99.90
22680;DHT22;11507;44.858;10.374;2023-04-19T03:52:23;6.20;99.90
22680;DHT22;11507;44.858;10.374;2023-04-19T03:54:50;6.10;99.90
22680;DHT22;11507;44.858;10.374;2023-04-19T03:57:32;6.10;99.90
22680;DHT22;11507;44.858;10.374;2023-04-19T04:00:04;6.10;99.90
22680;DHT22;11507;44.858;10.374;2023-04-19T04:02:39;6.10;99.90
22680;DHT22;11507;44.858;10.374;2023-04-19T04:05:05;6.10;99.90
22680;DHT22;11507;44.858;10.374;2023-04-19T04:07:32;6.10;99.90
22680;DHT22;11507;44.858;10.374;2023-04-19T04:09:59;6.10;99.90
22680;DHT22;11507;44.858;10.374;2023-04-19T04:12:26;6.10;99.90
22680;DHT22;11507;44.858;10.374;2023-04-19T04:14:53;6.10;99.90
22680;DHT22;11507;44.858;10.374;2023-04-19T04:17:21;6.20;99.90
22680;DHT22;11507;44.858;10.374;2023-04-19T04:19:49;6.10;99.90
22680;DHT22;11507;44.858;10.374;2023-04-19T04:22:15;6.10;99.90
22680;DHT22;11507;44.858;10.374;2023-04-19T04:24:41;6.00;99.90
22680;DHT22;11507;44.858;10.374;2023-04-19T04:27:24;6.00;99.90
22680;DHT22;11507;44.858;10.374;2023-04-19T04:29:53;6.00;99.90
22680;DHT22;11507;44.858;10.374;2023-04-19T04:32:22;5.90;99.90
22680;DHT22;11507;44.858;10.374;2023-04-19T04:34:51;5.90;99.90
22680;DHT22;11507;44.858;10.374;2023-04-19T04:37:26;6.00;99.90
22680;DHT22;11507;44.858;10.374;2023-04-19T04:39:52;6.00;99.90
22680;DHT22;11507;44.858;10.374;2023-04-19T04:42:18;6.00;99.90
22680;DHT22;11507;44.858;10.374;2023-04-19T04:44:46;6.10;99.90
22680;DHT22;11507;44.858;10.374;2023-04-19T04:47:12;6.10;99.90
22680;DHT22;11507;44.858;10.374;2023-04-19T04:49:45;6.10;99.90
22680;DHT22;11507;44.858;10.374;2023-04-19T04:52:11;6.10;99.90
22680;DHT22;11507;44.858;10.374;2023-04-19T04:54:53;6.20;99.90
22680;DHT22;11507;44.858;10.374;2023-04-19T04:57:26;6.20;99.90
22680;DHT22;11507;44.858;10.374;2023-04-19T04:59:52;6.30;99.90
22680;DHT22;11507;44.858;10.374;2023-04-19T05:02:20;6.40;99.90
22680;DHT22;11507;44.858;10.374;2023-04-19T05:04:50;6.50;99.90
22680;DHT22;11507;44.858;10.374;2023-04-19T05:07:16;6.50;99.90
22680;DHT22;11507;44.858;10.374;2023-04-19T05:09:42;6.50;99.90
22680;DHT22;11507;44.858;10.374;2023-04-19T05:12:11;6.60;99.90
22680;DHT22;11507;44.858;10.374;2023-04-19T05:14:37;6.60;99.90
22680;DHT22;11507;44.858;10.374;2023-04-19T05:17:03;6.70;99.90
22680;DHT22;11507;44.858;10.374;2023-04-19T05:19:30;6.80;99.90
22680;DHT22;11507;44.858;10.374;2023-04-19T05:22:01;7.10;99.90
22680;DHT22;11507;44.858;10.374;2023-04-19T05:24:27;7.40;99.90
22680;DHT22;11507;44.858;10.374;2023-04-19T05:26:53;7.70;99.90
22680;DHT22;11507;44.858;10.374;2023-04-19T05:29:19;8.00;99.90
22680;DHT22;11507;44.858;10.374;2023-04-19T05:31:50;8.30;99.90
22680;DHT22;11507;44.858;10.374;2023-04-19T05:34:30;8.60;99.90
22680;DHT22;11507;44.858;10.374;2023-04-19T05:36:57;8.90;99.90
22680;DHT22;11507;44.858;10.374;2023-04-19T05:39:27;9.10;99.90
22680;DHT22;11507;44.858;10.374;2023-04-19T05:41:54;9.30;99.90
22680;DHT22;11507;44.858;10.374;2023-04-19T05:44:20;9.40;99.90
22680;DHT22;11507;44.858;10.374;2023-04-19T05:46:45;9.60;99.90
22680;DHT22;11507;44.858;10.374;2023-04-19T05:49:16;9.60;99.90
22680;DHT22;11507;44.858;10.374;2023-04-19T05:52:09;9.70;99.90
22680;DHT22;11507;44.858;10.374;2023-04-19T05:54:42;9.90;99.90
22680;DHT22;11507;44.858;10.374;2023-04-19T05:57:10;10.10;99.90
22680;DHT22;11507;44.858;10.374;2023-04-19T05:59:35;10.20;99.90
22680;DHT22;11507;44.858;10.374;2023-04-19T06:02:03;10.40;99.90
22680;DHT22;11507;44.858;10.374;2023-04-19T06:04:30;10.50;99.90
22680;DHT22;11507;44.858;10.374;2023-04-19T06:06:56;10.70;99.90
22680;DHT22;11507;44.858;10.374;2023-04-19T06:09:21;10.90;99.90
22680;DHT22;11507;44.858;10.374;2023-04-19T06:11:47;11.10;99.90
22680;DHT22;11507;44.858;10.374;2023-04-19T06:14:13;11.30;99.90
22680;DHT22;11507;44.858;10.374;2023-04-19T06:16:40;11.50;99.90
22680;DHT22;11507;44.858;10.374;2023-04-19T06:19:08;11.70;99.90
22680;DHT22;11507;44.858;10.374;2023-04-19T06:21:34;11.90;99.90
22680;DHT22;11507;44.858;10.374;2023-04-19T06:24:00;12.10;99.90
22680;DHT22;11507;44.858;10.374;2023-04-19T06:26:26;12.30;99.90
22680;DHT22;11507;44.858;10.374;2023-04-19T06:28:52;12.50;99.90
22680;DHT22;11507;44.858;10.374;2023-04-19T06:31:18;12.60;99.90
22680;DHT22;11507;44.858;10.374;2023-04-19T06:33:44;12.90;99.90
22680;DHT22;11507;44.858;10.374;2023-04-19T06:36:10;13.10;99.90
22680;DHT22;11507;44.858;10.374;2023-04-19T06:38:36;13.30;99.90
22680;DHT22;11507;44.858;10.374;2023-04-19T06:41:07;13.50;99.90
22680;DHT22;11507;44.858;10.374;2023-04-19T06:43:33;13.70;99.90
22680;DHT22;11507;44.858;10.374;2023-04-19T06:45:59;13.90;99.90
22680;DHT22;11507;44.858;10.374;2023-04-19T06:48:25;14.00;99.90
22680;DHT22;11507;44.858;10.374;2023-04-19T06:50:52;14.30;99.90
22680;DHT22;11507;44.858;10.374;2023-04-19T06:53:18;14.50;99.90
22680;DHT22;11507;44.858;10.374;2023-04-19T06:55:44;14.60;99.90
22680;DHT22;11507;44.858;10.374;2023-04-19T07:00:39;15.00;99.90
22680;DHT22;11507;44.858;10.374;2023-04-19T07:03:05;15.20;99.90
22680;DHT22;11507;44.858;10.374;2023-04-19T07:05:31;15.40;99.90
22680;DHT22;11507;44.858;10.374;2023-04-19T07:07:57;15.50;99.90
22680;DHT22;11507;44.858;10.374;2023-04-19T07:10:24;15.80;99.90
22680;DHT22;11507;44.858;10.374;2023-04-19T07:12:50;16.00;99.90
22680;DHT22;11507;44.858;10.374;2023-04-19T07:15:16;16.10;99.90
22680;DHT22;11507;44.858;10.374;2023-04-19T07:17:42;16.20;99.90
22680;DHT22;11507;44.858;10.374;2023-04-19T07:20:08;16.30;99.90
22680;DHT22;11507;44.858;10.374;2023-04-19T07:22:36;16.40;99.90
22680;DHT22;11507;44.858;10.374;2023-04-19T07:25:02;16.60;99.90
22680;DHT22;11507;44.858;10.374;2023-04-19T07:27:30;16.80;99.90
22680;DHT22;11507;44.858;10.374;2023-04-19T07:29:56;17.00;99.90
22680;DHT22;11507;44.858;10.374;2023-04-19T07:32:24;17.20;99.90
22680;DHT22;11507;44.858;10.374;2023-04-19T07:37:25;17.40;99.90
22680;DHT22;11507;44.858;10.374;2023-04-19T07:39:57;17.40;99.90
22680;DHT22;11507;44.858;10.374;2023-04-19T07:42:25;17.60;99.90
22680;DHT22;11507;44.858;10.374;2023-04-19T07:44:57;17.60;99.90
22680;DHT22;11507;44.858;10.374;2023-04-19T07:47:24;17.70;99.90
22680;DHT22;11507;44.858;10.374;2023-04-19T07:49:51;17.70;99.90
22680;DHT22;11507;44.858;10.374;2023-04-19T07:52:18;17.80;99.90
22680;DHT22;11507;44.858;10.374;2023-04-19T07:54:43;18.00;99.90
22680;DHT22;11507;44.858;10.374;2023-04-19T07:57:10;18.20;99.90
22680;DHT22;11507;44.858;10.374;2023-04-19T07:59:36;18.40;99.90
22680;DHT22;11507;44.858;10.374;2023-04-19T08:02:03;18.40;99.90
22680;DHT22;11507;44.858;10.374;2023-04-19T08:04:33;18.50;99.90
22680;DHT22;11507;44.858;10.374;2023-04-19T08:07:00;18.60;99.90
22680;DHT22;11507;44.858;10.374;2023-04-19T08:09:27;18.70;99.90
22680;DHT22;11507;44.858;10.374;2023-04-19T08:11:54;19.00;99.90
22680;DHT22;11507;44.858;10.374;2023-04-19T08:14:22;19.00;99.90
22680;DHT22;11507;44.858;10.374;2023-04-19T08:16:49;19.10;99.90
22680;DHT22;11507;44.858;10.374;2023-04-19T08:19:17;19.30;99.90
22680;DHT22;11507;44.858;10.374;2023-04-19T08:21:43;19.30;99.90
22680;DHT22;11507;44.858;10.374;2023-04-19T08:24:10;19.50;99.90
22680;DHT22;11507;44.858;10.374;2023-04-19T08:26:42;19.50;99.90
22680;DHT22;11507;44.858;10.374;2023-04-19T08:29:08;19.90;99.90
22680;DHT22;11507;44.858;10.374;2023-04-19T08:31:35;20.20;99.90
22680;DHT22;11507;44.858;10.374;2023-04-19T08:34:03;20.40;99.90
22680;DHT22;11507;44.858;10.374;2023-04-19T08:36:30;20.70;99.90
22680;DHT22;11507;44.858;10.374;2023-04-19T08:39:05;20.60;99.50
22680;DHT22;11507;44.858;10.374;2023-04-19T08:41:33;20.80;99.50
22680;DHT22;11507;44.858;10.374;2023-04-19T08:43:59;20.90;99.90
22680;DHT22;11507;44.858;10.374;2023-04-19T08:46:26;21.10;99.00
22680;DHT22;11507;44.858;10.374;2023-04-19T08:51:28;21.50;97.80
22680;DHT22;11507;44.858;10.374;2023-04-19T08:53:57;21.70;99.20
22680;DHT22;11507;44.858;10.374;2023-04-19T08:56:24;21.90;97.20
22680;DHT22;11507;44.858;10.374;2023-04-19T08:58:54;21.90;98.70
22680;DHT22;11507;44.858;10.374;2023-04-19T09:01:27;22.10;96.20
22680;DHT22;11507;44.858;10.374;2023-04-19T09:03:55;22.20;94.40
22680;DHT22;11507;44.858;10.374;2023-04-19T09:06:23;22.50;95.60
22680;DHT22;11507;44.858;10.374;2023-04-19T09:08:51;22.60;93.60
22680;DHT22;11507;44.858;10.374;2023-04-19T09:11:35;22.80;94.60
22680;DHT22;11507;44.858;10.374;2023-04-19T09:14:10;23.20;95.20
22680;DHT22;11507;44.858;10.374;2023-04-19T09:16:38;23.50;93.90
22680;DHT22;11507;44.858;10.374;2023-04-19T09:19:05;23.90;93.30
22680;DHT22;11507;44.858;10.374;2023-04-19T09:21:33;24.10;91.70
22680;DHT22;11507;44.858;10.374;2023-04-19T09:24:02;24.10;91.50
22680;DHT22;11507;44.858;10.374;2023-04-19T09:26:28;24.20;90.30
22680;DHT22;11507;44.858;10.374;2023-04-19T09:28:58;24.20;86.70
22680;DHT22;11507;44.858;10.374;2023-04-19T09:31:26;24.10;91.40
22680;DHT22;11507;44.858;10.374;2023-04-19T09:33:52;23.80;87.80
22680;DHT22;11507;44.858;10.374;2023-04-19T09:36:31;23.90;89.30
22680;DHT22;11507;44.858;10.374;2023-04-19T09:38:58;24.20;85.50
22680;DHT22;11507;44.858;10.374;2023-04-19T09:41:34;24.30;87.00
22680;DHT22;11507;44.858;10.374;2023-04-19T09:44:08;24.70;87.30
22680;DHT22;11507;44.858;10.374;2023-04-19T09:46:36;25.00;90.20
22680;DHT22;11507;44.858;10.374;2023-04-19T09:49:21;25.20;81.30
22680;DHT22;11507;44.858;10.374;2023-04-19T09:51:57;25.40;83.10
22680;DHT22;11507;44.858;10.374;2023-04-19T09:54:27;26.00;88.00
22680;DHT22;11507;44.858;10.374;2023-04-19T09:56:56;26.40;84.50
22680;DHT22;11507;44.858;10.374;2023-04-19T09:59:22;26.70;78.70
22680;DHT22;11507;44.858;10.374;2023-04-19T10:01:57;26.90;77.90
22680;DHT22;11507;44.858;10.374;2023-04-19T10:04:24;27.20;79.60
22680;DHT22;11507;44.858;10.374;2023-04-19T10:06:55;27.20;73.50
22680;DHT22;11507;44.858;10.374;2023-04-19T10:09:21;27.30;77.80
22680;DHT22;11507;44.858;10.374;2023-04-19T10:11:49;27.70;73.60
22680;DHT22;11507;44.858;10.374;2023-04-19T10:14:15;28.00;77.30
22680;DHT22;11507;44.858;10.374;2023-04-19T10:16:43;28.30;76.70
22680;DHT22;11507;44.858;10.374;2023-04-19T10:19:11;28.90;75.00
22680;DHT22;11507;44.858;10.374;2023-04-19T10:21:37;28.80;67.40
22680;DHT22;11507;44.858;10.374;2023-04-19T10:24:07;29.00;71.10
22680;DHT22;11507;44.858;10.374;2023-04-19T10:30:01;29.40;69.10
22680;DHT22;11507;44.858;10.374;2023-04-19T10:32:11;29.50;63.80
22680;DHT22;11507;44.858;10.374;2023-04-19T10:34:40;29.30;64.10
22680;DHT22;11507;44.858;10.374;2023-04-19T10:37:09;28.90;63.40
22680;DHT22;11507;44.858;10.374;2023-04-19T10:39:39;29.30;66.90
22680;DHT22;11507;44.858;10.374;2023-04-19T10:42:06;29.30;61.00
22680;DHT22;11507;44.858;10.374;2023-04-19T10:44:32;29.30;63.20
22680;DHT22;11507;44.858;10.374;2023-04-19T10:47:04;29.40;67.80
22680;DHT22;11507;44.858;10.374;2023-04-19T10:49:43;29.80;67.40
22680;DHT22;11507;44.858;10.374;2023-04-19T10:52:31;30.40;67.80
22680;DHT22;11507;44.858;10.374;2023-04-19T10:54:57;31.00;60.60
22680;DHT22;11507;44.858;10.374;2023-04-19T10:57:23;31.20;60.90
22680;DHT22;11507;44.858;10.374;2023-04-19T11:02:35;31.20;56.20
22680;DHT22;11507;44.858;10.374;2023-04-19T11:05:01;31.30;55.40
22680;DHT22;11507;44.858;10.374;2023-04-19T11:07:34;31.00;54.60
22680;DHT22;11507;44.858;10.374;2023-04-19T11:10:01;30.50;54.50
22680;DHT22;11507;44.858;10.374;2023-04-19T11:12:29;30.30;57.50
22680;DHT22;11507;44.858;10.374;2023-04-19T11:14:56;30.10;56.70
22680;DHT22;11507;44.858;10.374;2023-04-19T11:17:27;30.50;55.60
22680;DHT22;11507;44.858;10.374;2023-04-19T11:20:06;30.60;54.00
22680;DHT22;11507;44.858;10.374;2023-04-19T11:22:40;30.60;56.80
22680;DHT22;11507;44.858;10.374;2023-04-19T11:25:12;30.90;56.70
22680;DHT22;11507;44.858;10.374;2023-04-19T11:27:40;31.40;56.60
22680;DHT22;11507;44.858;10.374;2023-04-19T11:30:19;31.60;54.30
22680;DHT22;11507;44.858;10.374;2023-04-19T11:32:56;32.00;56.90
22680;DHT22;11507;44.858;10.374;2023-04-19T11:35:26;32.70;55.00
22680;DHT22;11507;44.858;10.374;2023-04-19T11:37:58;33.20;55.90
22680;DHT22;11507;44.858;10.374;2023-04-19T11:40:24;33.60;53.20
22680;DHT22;11507;44.858;10.374;2023-04-19T11:42:54;33.60;49.70
22680;DHT22;11507;44.858;10.374;2023-04-19T11:45:24;33.40;50.00
22680;DHT22;11507;44.858;10.374;2023-04-19T11:47:52;33.30;51.80
22680;DHT22;11507;44.858;10.374;2023-04-19T11:52:57;32.90;49.10
22680;DHT22;11507;44.858;10.374;2023-04-19T11:55:23;33.10;49.00
22680;DHT22;11507;44.858;10.374;2023-04-19T11:57:49;33.10;48.20
22680;DHT22;11507;44.858;10.374;2023-04-19T12:00:16;33.10;48.40
22680;DHT22;11507;44.858;10.374;2023-04-19T12:02:53;33.20;48.60
22680;DHT22;11507;44.858;10.374;2023-04-19T12:05:22;33.60;48.30
22680;DHT22;11507;44.858;10.374;2023-04-19T12:08:06;33.80;46.60
22680;DHT22;11507;44.858;10.374;2023-04-19T12:10:36;34.00;47.20
22680;DHT22;11507;44.858;10.374;2023-04-19T12:13:15;34.20;48.30
22680;DHT22;11507;44.858;10.374;2023-04-19T12:15:44;34.30;45.80
22680;DHT22;11507;44.858;10.374;2023-04-19T12:18:12;34.40;47.00
22680;DHT22;11507;44.858;10.374;2023-04-19T12:20:43;34.60;45.50
22680;DHT22;11507;44.858;10.374;2023-04-19T12:23:10;35.00;42.90
22680;DHT22;11507;44.858;10.374;2023-04-19T12:25:38;35.60;44.00
22680;DHT22;11507;44.858;10.374;2023-04-19T12:28:05;35.70;41.20
22680;DHT22;11507;44.858;10.374;2023-04-19T12:30:34;35.50;44.60
22680;DHT22;11507;44.858;10.374;2023-04-19T12:33:00;35.60;44.40
22680;DHT22;11507;44.858;10.374;2023-04-19T12:35:28;35.90;43.20
22680;DHT22;11507;44.858;10.374;2023-04-19T12:37:56;35.70;42.60
22680;DHT22;11507;44.858;10.374;2023-04-19T12:40:22;35.40;43.50
22680;DHT22;11507;44.858;10.374;2023-04-19T12:42:48;35.20;41.80
22680;DHT22;11507;44.858;10.374;2023-04-19T12:45:14;35.30;44.20
22680;DHT22;11507;44.858;10.374;2023-04-19T12:47:43;35.20;41.30
22680;DHT22;11507;44.858;10.374;2023-04-19T12:50:10;35.10;42.70
22680;DHT22;11507;44.858;10.374;2023-04-19T12:52:37;35.40;43.50
22680;DHT22;11507;44.858;10.374;2023-04-19T12:55:04;35.80;42.80
22680;DHT22;11507;44.858;10.374;2023-04-19T12:57:30;35.90;43.30
22680;DHT22;11507;44.858;10.374;2023-04-19T12:59:56;36.20;41.20
22680;DHT22;11507;44.858;10.374;2023-04-19T13:04:52;36.00;38.60
22680;DHT22;11507;44.858;10.374;2023-04-19T13:07:18;35.70;39.20
22680;DHT22;11507;44.858;10.374;2023-04-19T13:09:46;35.80;41.70
22680;DHT22;11507;44.858;10.374;2023-04-19T13:12:12;35.70;39.30
22680;DHT22;11507;44.858;10.374;2023-04-19T13:14:39;35.60;40.30
22680;DHT22;11507;44.858;10.374;2023-04-19T13:17:06;35.70;40.00
22680;DHT22;11507;44.858;10.374;2023-04-19T13:19:33;36.00;39.40
22680;DHT22;11507;44.858;10.374;2023-04-19T13:24:30;36.80;39.90
22680;DHT22;11507;44.858;10.374;2023-04-19T13:26:56;37.20;37.80
22680;DHT22;11507;44.858;10.374;2023-04-19T13:29:22;37.60;38.40
22680;DHT22;11507;44.858;10.374;2023-04-19T13:31:48;37.90;37.20
22680;DHT22;11507;44.858;10.374;2023-04-19T13:34:16;38.00;36.40
22680;DHT22;11507;44.858;10.374;2023-04-19T13:36:43;38.20;38.20
22680;DHT22;11507;44.858;10.374;2023-04-19T13:39:11;38.20;37.70
22680;DHT22;11507;44.858;10.374;2023-04-19T13:41:37;38.50;37.50
22680;DHT22;11507;44.858;10.374;2023-04-19T13:44:04;38.70;36.30
22680;DHT22;11507;44.858;10.374;2023-04-19T13:46:30;38.80;35.10
22680;DHT22;11507;44.858;10.374;2023-04-19T13:48:57;38.80;35.60
22680;DHT22;11507;44.858;10.374;2023-04-19T13:51:23;38.40;32.50
22680;DHT22;11507;44.858;10.374;2023-04-19T13:53:50;38.40;35.60
22680;DHT22;11507;44.858;10.374;2023-04-19T13:56:16;38.50;35.80
22680;DHT22;11507;44.858;10.374;2023-04-19T13:58:43;38.60;33.60
22680;DHT22;11507;44.858;10.374;2023-04-19T14:01:09;38.60;34.50
22680;DHT22;11507;44.858;10.374;2023-04-19T14:03:35;39.00;33.50
22680;DHT22;11507;44.858;10.374;2023-04-19T14:06:03;39.00;32.60
22680;DHT22;11507;44.858;10.374;2023-04-19T14:08:29;38.60;32.90
22680;DHT22;11507;44.858;10.374;2023-04-19T14:10:56;38.50;34.10
22680;DHT22;11507;44.858;10.374;2023-04-19T14:13:23;38.40;33.90
22680;DHT22;11507;44.858;10.374;2023-04-19T14:15:49;38.70;34.10
22680;DHT22;11507;44.858;10.374;2023-04-19T14:18:15;38.50;32.70
22680;DHT22;11507;44.858;10.374;2023-04-19T14:20:41;38.50;33.40
22680;DHT22;11507;44.858;10.374;2023-04-19T14:23:08;38.40;33.40
22680;DHT22;11507;44.858;10.374;2023-04-19T14:25:40;38.30;34.90
22680;DHT22;11507;44.858;10.374;2023-04-19T14:28:06;38.40;34.90
22680;DHT22;11507;44.858;10.374;2023-04-19T14:30:32;38.60;33.50
22680;DHT22;11507;44.858;10.374;2023-04-19T14:32:59;38.10;34.30
22680;DHT22;11507;44.858;10.374;2023-04-19T14:35:25;38.00;32.80
22680;DHT22;11507;44.858;10.374;2023-04-19T14:37:50;37.60;33.80
22680;DHT22;11507;44.858;10.374;2023-04-19T14:40:16;37.10;34.50
22680;DHT22;11507;44.858;10.374;2023-04-19T14:42:44;37.00;35.20
22680;DHT22;11507;44.858;10.374;2023-04-19T14:45:10;36.90;36.20
22680;DHT22;11507;44.858;10.374;2023-04-19T14:47:36;37.20;33.50
22680;DHT22;11507;44.858;10.374;2023-04-19T14:50:04;37.00;34.30
22680;DHT22;11507;44.858;10.374;2023-04-19T14:52:30;37.10;34.10
22680;DHT22;11507;44.858;10.374;2023-04-19T14:54:58;37.00;33.10
22680;DHT22;11507;44.858;10.374;2023-04-19T14:57:25;37.20;33.40
22680;DHT22;11507;44.858;10.374;2023-04-19T15:00:04;36.60;33.20
22680;DHT22;11507;44.858;10.374;2023-04-19T15:02:32;36.50;34.10
22680;DHT22;11507;44.858;10.374;2023-04-19T15:04:58;36.60;33.60
22680;DHT22;11507;44.858;10.374;2023-04-19T15:07:24;36.70;35.90
22680;DHT22;11507;44.858;10.374;2023-04-19T15:09:50;37.00;35.00
22680;DHT22;11507;44.858;10.374;2023-04-19T15:12:18;37.30;35.00
22680;DHT22;11507;44.858;10.374;2023-04-19T15:14:44;36.90;31.30
22680;DHT22;11507;44.858;10.374;2023-04-19T15:17:12;36.90;31.10
22680;DHT22;11507;44.858;10.374;2023-04-19T15:19:38;37.10;33.60
22680;DHT22;11507;44.858;10.374;2023-04-19T15:22:08;37.30;33.80
22680;DHT22;11507;44.858;10.374;2023-04-19T15:24:34;36.40;33.60
22680;DHT22;11507;44.858;10.374;2023-04-19T15:27:00;35.10;33.40
22680;DHT22;11507;44.858;10.374;2023-04-19T15:29:26;33.40;35.30
22680;DHT22;11507;44.858;10.374;2023-04-19T15:31:54;32.30;39.40
22680;DHT22;11507;44.858;10.374;2023-04-19T15:34:25;31.20;42.80
22680;DHT22;11507;44.858;10.374;2023-04-19T15:36:53;31.10;40.30
22680;DHT22;11507;44.858;10.374;2023-04-19T15:39:19;29.80;43.50
22680;DHT22;11507;44.858;10.374;2023-04-19T15:41:45;29.20;44.60
22680;DHT22;11507;44.858;10.374;2023-04-19T15:46:40;27.30;48.70
22680;DHT22;11507;44.858;10.374;2023-04-19T15:49:08;26.40;50.20
22680;DHT22;11507;44.858;10.374;2023-04-19T15:51:35;25.70;51.60